sensor_id;sensor_type;location;lat;lon;timestamp;temperature;humidity
4727;DHT22;2377;51.734;8.950;2023-02-01T00:00:33;4.40;99.90
4727;DHT22;2377;51.734;8.950;2023-02-01T00:03:01;4.30;99.90
4727;DHT22;2377;51.734;8.950;2023-02-01T00:05:31;4.30;99.90
4727;DHT22;2377;51.734;8.950;2023-02-01T00:07:58;4.30;99.90
4727;DHT22;2377;51.734;8.950;2023-02-01T00:10:25;4.30;99.90
4727;DHT22;2377;51.734;8.950;2023-02-01T00:12:52;4.30;99.90
4727;DHT22;2377;51.734;8.950;2023-02-01T00:15:19;4.30;99.90
4727;DHT22;2377;51.734;8.950;2023-02-01T00:17:51;4.30;99.90
4727;DHT22;2377;51.734;8.950;2023-02-01T00:20:21;4.20;99.90
4727;DHT22;2377;51.734;8.950;2023-02-01T00:22:48;4.30;99.90
4727;DHT22;2377;51.734;8.950;2023-02-01T00:25:15;4.30;99.90
4727;DHT22;2377;51.734;8.950;2023-02-01T00:27:42;4.30;87.20
4727;DHT22;2377;51.734;8.950;2023-02-01T00:30:10;4.40;96.70
4727;DHT22;2377;51.734;8.950;2023-02-01T00:32:38;4.40;98.10
4727;DHT22;2377;51.734;8.950;2023-02-01T00:35:06;4.40;86.70
4727;DHT22;2377;51.734;8.950;2023-02-01T00:37:36;4.40;99.90
4727;DHT22;2377;51.734;8.950;2023-02-01T00:40:03;4.30;95.90
4727;DHT22;2377;51.734;8.950;2023-02-01T00:42:31;4.30;85.20
4727;DHT22;2377;51.734;8.950;2023-02-01T00:44:58;4.30;70.60
4727;DHT22;2377;51.734;8.950;2023-02-01T00:47:25;4.40;76.80
4727;DHT22;2377;51.734;8.950;2023-02-01T00:49:52;4.40;77.60
4727;DHT22;2377;51.734;8.950;2023-02-01T00:52:19;4.30;87.80
4727;DHT22;2377;51.734;8.950;2023-02-01T00:54:47;4.30;88.10
4727;DHT22;2377;51.734;8.950;2023-02-01T00:57:14;4.30;87.60
4727;DHT22;2377;51.734;8.950;2023-02-01T00:59:41;4.30;75.20
4727;DHT22;2377;51.734;8.950;2023-02-01T01:02:08;4.30;67.50
4727;DHT22;2377;51.734;8.950;2023-02-01T01:04:36;4.30;85.00
4727;DHT22;2377;51.734;8.950;2023-02-01T01:07:03;4.30;92.40
4727;DHT22;2377;51.734;8.950;2023-02-01T01:09:30;4.30;90.30
4727;DHT22;2377;51.734;8.950;2023-02-01T01:11:58;4.20;73.50
4727;DHT22;2377;51.734;8.950;2023-02-01T01:14:28;4.30;56.40
4727;DHT22;2377;51.734;8.950;2023-02-01T01:16:55;4.30;69.70
4727;DHT22;2377;51.734;8.950;2023-02-01T01:19:22;4.30;72.70
4727;DHT22;2377;51.734;8.950;2023-02-01T01:21:49;4.30;82.10
4727;DHT22;2377;51.734;8.950;2023-02-01T01:24:16;4.30;84.00
4727;DHT22;2377;51.734;8.950;2023-02-01T01:26:43;4.30;90.40
4727;DHT22;2377;51.734;8.950;2023-02-01T01:29:12;4.20;83.70
4727;DHT22;2377;51.734;8.950;2023-02-01T01:31:39;4.30;54.30
4727;DHT22;2377;51.734;8.950;2023-02-01T01:34:06;4.30;69.90
4727;DHT22;2377;51.734;8.950;2023-02-01T01:36:33;4.30;73.20
4727;DHT22;2377;51.734;8.950;2023-02-01T01:39:00;4.30;87.80
4727;DHT22;2377;51.734;8.950;2023-02-01T01:41:30;4.30;81.60
4727;DHT22;2377;51.734;8.950;2023-02-01T01:44:01;4.40;78.00
4727;DHT22;2377;51.734;8.950;2023-02-01T01:46:33;4.40;84.80
4727;DHT22;2377;51.734;8.950;2023-02-01T01:49:07;4.40;81.60
4727;DHT22;2377;51.734;8.950;2023-02-01T01:51:38;4.50;98.20
4727;DHT22;2377;51.734;8.950;2023-02-01T01:54:15;4.50;99.90
4727;DHT22;2377;51.734;8.950;2023-02-01T01:56:46;4.50;99.90
4727;DHT22;2377;51.734;8.950;2023-02-01T01:59:17;4.50;99.90
4727;DHT22;2377;51.734;8.950;2023-02-01T02:01:47;4.50;99.90
4727;DHT22;2377;51.734;8.950;2023-02-01T02:04:15;4.50;99.90
4727;DHT22;2377;51.734;8.950;2023-02-01T02:06:47;4.60;99.90
4727;DHT22;2377;51.734;8.950;2023-02-01T02:09:21;4.50;99.90
4727;DHT22;2377;51.734;8.950;2023-02-01T02:11:48;4.50;99.90
4727;DHT22;2377;51.734;8.950;2023-02-01T02:14:17;4.50;99.90
4727;DHT22;2377;51.734;8.950;2023-02-01T02:17:06;4.50;99.90
4727;DHT22;2377;51.734;8.950;2023-02-01T02:20:11;4.50;99.90
4727;DHT22;2377;51.734;8.950;2023-02-01T02:23:41;4.50;99.90
4727;DHT22;2377;51.734;8.950;2023-02-01T02:26:50;4.50;99.90
4727;DHT22;2377;51.734;8.950;2023-02-01T02:33:32;4.60;99.90
4727;DHT22;2377;51.734;8.950;2023-02-01T02:36:12;4.50;99.90
4727;DHT22;2377;51.734;8.950;2023-02-01T02:38:50;4.50;99.90
4727;DHT22;2377;51.734;8.950;2023-02-01T02:41:31;4.50;99.90
4727;DHT22;2377;51.734;8.950;2023-02-01T02:44:26;4.50;99.90
4727;DHT22;2377;51.734;8.950;2023-02-01T02:47:21;4.60;99.90
4727;DHT22;2377;51.734;8.950;2023-02-01T02:49:58;4.50;88.50
4727;DHT22;2377;51.734;8.950;2023-02-01T02:52:58;4.60;73.80
4727;DHT22;2377;51.734;8.950;2023-02-01T02:55:50;4.60;53.20
4727;DHT22;2377;51.734;8.950;2023-02-01T02:58:18;4.60;56.10
4727;DHT22;2377;51.734;8.950;2023-02-01T03:01:05;4.60;51.10
4727;DHT22;2377;51.734;8.950;2023-02-01T03:03:50;4.60;58.90
4727;DHT22;2377;51.734;8.950;2023-02-01T03:06:36;4.50;36.60
4727;DHT22;2377;51.734;8.950;2023-02-01T03:09:11;4.60;29.70
4727;DHT22;2377;51.734;8.950;2023-02-01T03:11:46;4.60;39.00
4727;DHT22;2377;51.734;8.950;2023-02-01T03:14:37;4.60;34.40
4727;DHT22;2377;51.734;8.950;2023-02-01T03:17:13;4.60;19.00
4727;DHT22;2377;51.734;8.950;2023-02-01T03:19:45;4.60;1.00
4727;DHT22;2377;51.734;8.950;2023-02-01T03:22:20;4.70;16.30
4727;DHT22;2377;51.734;8.950;2023-02-01T03:24:52;4.60;18.40
4727;DHT22;2377;51.734;8.950;2023-02-01T03:27:24;4.60;7.50
4727;DHT22;2377;51.734;8.950;2023-02-01T03:30:02;4.60;1.00
4727;DHT22;2377;51.734;8.950;2023-02-01T03:32:33;4.60;9.80
4727;DHT22;2377;51.734;8.950;2023-02-01T03:35:25;4.60;1.00
4727;DHT22;2377;51.734;8.950;2023-02-01T03:38:02;4.60;1.00
4727;DHT22;2377;51.734;8.950;2023-02-01T03:40:37;4.60;1.00
4727;DHT22;2377;51.734;8.950;2023-02-01T03:43:09;4.60;1.00
4727;DHT22;2377;51.734;8.950;2023-02-01T03:45:43;4.70;1.00
4727;DHT22;2377;51.734;8.950;2023-02-01T03:48:15;4.70;1.00
4727;DHT22;2377;51.734;8.950;2023-02-01T03:50:47;4.70;1.00
4727;DHT22;2377;51.734;8.950;2023-02-01T03:53:21;4.70;1.00
4727;DHT22;2377;51.734;8.950;2023-02-01T03:55:50;4.60;1.00
4727;DHT22;2377;51.734;8.950;2023-02-01T03:58:20;4.60;1.00
4727;DHT22;2377;51.734;8.950;2023-02-01T04:00:52;4.60;1.00
4727;DHT22;2377;51.734;8.950;2023-02-01T04:03:21;4.60;1.00
4727;DHT22;2377;51.734;8.950;2023-02-01T04:05:48;4.60;1.00
4727;DHT22;2377;51.734;8.950;2023-02-01T04:08:16;4.60;1.00
4727;DHT22;2377;51.734;8.950;2023-02-01T04:10:44;4.60;6.60
4727;DHT22;2377;51.734;8.950;2023-02-01T04:13:12;4.60;1.00
4727;DHT22;2377;51.734;8.950;2023-02-01T04:15:39;4.60;1.00
4727;DHT22;2377;51.734;8.950;2023-02-01T04:18:06;4.60;1.00
4727;DHT22;2377;51.734;8.950;2023-02-01T04:20:33;4.60;1.80
4727;DHT22;2377;51.734;8.950;2023-02-01T04:23:00;4.60;2.10
4727;DHT22;2377;51.734;8.950;2023-02-01T04:25:30;4.60;3.60
4727;DHT22;2377;51.734;8.950;2023-02-01T04:27:57;4.60;1.00
4727;DHT22;2377;51.734;8.950;2023-02-01T04:30:24;4.60;1.00
4727;DHT22;2377;51.734;8.950;2023-02-01T04:32:51;4.60;1.00
4727;DHT22;2377;51.734;8.950;2023-02-01T04:35:18;4.70;1.00
4727;DHT22;2377;51.734;8.950;2023-02-01T04:37:46;4.70;1.00
4727;DHT22;2377;51.734;8.950;2023-02-01T04:40:13;4.60;1.00
4727;DHT22;2377;51.734;8.950;2023-02-01T04:42:41;4.70;1.00
4727;DHT22;2377;51.734;8.950;2023-02-01T04:45:09;4.70;1.00
4727;DHT22;2377;51.734;8.950;2023-02-01T04:47:37;4.70;1.00
4727;DHT22;2377;51.734;8.950;2023-02-01T04:50:05;4.70;1.00
4727;DHT22;2377;51.734;8.950;2023-02-01T04:52:36;4.70;1.00
4727;DHT22;2377;51.734;8.950;2023-02-01T04:55:03;4.70;1.00
4727;DHT22;2377;51.734;8.950;2023-02-01T04:57:31;4.70;1.00
4727;DHT22;2377;51.734;8.950;2023-02-01T04:59:59;4.80;2.70
4727;DHT22;2377;51.734;8.950;2023-02-01T05:02:26;4.60;1.00
4727;DHT22;2377;51.734;8.950;2023-02-01T05:04:54;4.70;11.90
4727;DHT22;2377;51.734;8.950;2023-02-01T05:07:21;4.60;1.00
4727;DHT22;2377;51.734;8.950;2023-02-01T05:09:48;4.60;4.40
4727;DHT22;2377;51.734;8.950;2023-02-01T05:12:15;4.60;4.30
4727;DHT22;2377;51.734;8.950;2023-02-01T05:15:01;4.60;1.70
4727;DHT22;2377;51.734;8.950;2023-02-01T05:17:28;4.60;12.70
4727;DHT22;2377;51.734;8.950;2023-02-01T05:19:55;4.60;11.60
4727;DHT22;2377;51.734;8.950;2023-02-01T05:22:22;4.60;1.00
4727;DHT22;2377;51.734;8.950;2023-02-01T05:24:49;4.70;7.90
4727;DHT22;2377;51.734;8.950;2023-02-01T05:27:16;4.60;13.60
4727;DHT22;2377;51.734;8.950;2023-02-01T05:29:43;4.60;1.00
4727;DHT22;2377;51.734;8.950;2023-02-01T05:32:12;4.60;25.40
4727;DHT22;2377;51.734;8.950;2023-02-01T05:34:39;4.60;16.90
4727;DHT22;2377;51.734;8.950;2023-02-01T05:37:06;4.60;23.50
4727;DHT22;2377;51.734;8.950;2023-02-01T05:39:33;4.50;29.40
4727;DHT22;2377;51.734;8.950;2023-02-01T05:42:00;4.50;28.30
4727;DHT22;2377;51.734;8.950;2023-02-01T05:44:27;4.50;38.00
4727;DHT22;2377;51.734;8.950;2023-02-01T05:46:55;4.50;38.10
4727;DHT22;2377;51.734;8.950;2023-02-01T05:49:23;4.50;35.20
4727;DHT22;2377;51.734;8.950;2023-02-01T05:51:50;4.50;41.40
4727;DHT22;2377;51.734;8.950;2023-02-01T05:54:17;4.50;37.80
4727;DHT22;2377;51.734;8.950;2023-02-01T05:56:44;4.50;43.60
4727;DHT22;2377;51.734;8.950;2023-02-01T05:59:11;4.50;32.40
4727;DHT22;2377;51.734;8.950;2023-02-01T06:01:39;4.50;65.60
4727;DHT22;2377;51.734;8.950;2023-02-01T06:04:06;4.50;71.00
4727;DHT22;2377;51.734;8.950;2023-02-01T06:06:34;4.40;51.90
4727;DHT22;2377;51.734;8.950;2023-02-01T06:09:02;4.50;53.40
4727;DHT22;2377;51.734;8.950;2023-02-01T06:11:30;4.50;38.10
4727;DHT22;2377;51.734;8.950;2023-02-01T06:13:58;4.50;52.40
4727;DHT22;2377;51.734;8.950;2023-02-01T06:16:27;4.50;51.80
4727;DHT22;2377;51.734;8.950;2023-02-01T06:18:54;4.50;47.50
4727;DHT22;2377;51.734;8.950;2023-02-01T06:21:21;4.50;46.10
4727;DHT22;2377;51.734;8.950;2023-02-01T06:23:51;4.50;31.30
4727;DHT22;2377;51.734;8.950;2023-02-01T06:26:19;4.50;45.30
4727;DHT22;2377;51.734;8.950;2023-02-01T06:28:46;4.50;32.90
4727;DHT22;2377;51.734;8.950;2023-02-01T06:31:13;4.50;31.70
4727;DHT22;2377;51.734;8.950;2023-02-01T06:33:40;4.50;50.50
4727;DHT22;2377;51.734;8.950;2023-02-01T06:36:09;4.50;37.20
4727;DHT22;2377;51.734;8.950;2023-02-01T06:38:38;4.50;20.60
4727;DHT22;2377;51.734;8.950;2023-02-01T06:41:06;4.60;37.90
4727;DHT22;2377;51.734;8.950;2023-02-01T06:43:37;4.50;17.50
4727;DHT22;2377;51.734;8.950;2023-02-01T06:46:12;4.60;15.40
4727;DHT22;2377;51.734;8.950;2023-02-01T06:48:41;4.60;11.20
4727;DHT22;2377;51.734;8.950;2023-02-01T06:51:19;4.60;17.40
4727;DHT22;2377;51.734;8.950;2023-02-01T06:53:48;4.60;16.00
4727;DHT22;2377;51.734;8.950;2023-02-01T06:56:16;4.60;29.80
4727;DHT22;2377;51.734;8.950;2023-02-01T06:58:44;4.60;24.90
4727;DHT22;2377;51.734;8.950;2023-02-01T07:01:12;4.50;19.90
4727;DHT22;2377;51.734;8.950;2023-02-01T07:03:40;4.60;16.30
4727;DHT22;2377;51.734;8.950;2023-02-01T07:06:08;4.60;8.90
4727;DHT22;2377;51.734;8.950;2023-02-01T07:08:37;4.60;10.10
4727;DHT22;2377;51.734;8.950;2023-02-01T07:11:05;4.70;13.90
4727;DHT22;2377;51.734;8.950;2023-02-01T07:13:35;4.60;1.70
4727;DHT22;2377;51.734;8.950;2023-02-01T07:16:05;4.70;11.60
4727;DHT22;2377;51.734;8.950;2023-02-01T07:18:35;4.60;12.90
4727;DHT22;2377;51.734;8.950;2023-02-01T07:21:02;4.60;1.00
4727;DHT22;2377;51.734;8.950;2023-02-01T07:23:29;4.70;7.50
4727;DHT22;2377;51.734;8.950;2023-02-01T07:25:58;4.80;1.00
4727;DHT22;2377;51.734;8.950;2023-02-01T07:28:28;4.80;1.00
4727;DHT22;2377;51.734;8.950;2023-02-01T07:31:03;4.80;7.80
4727;DHT22;2377;51.734;8.950;2023-02-01T07:33:31;4.70;3.00
4727;DHT22;2377;51.734;8.950;2023-02-01T07:36:01;4.70;11.30
4727;DHT22;2377;51.734;8.950;2023-02-01T07:38:29;4.70;1.00
4727;DHT22;2377;51.734;8.950;2023-02-01T07:40:59;4.70;4.90
4727;DHT22;2377;51.734;8.950;2023-02-01T07:43:28;4.70;1.00
4727;DHT22;2377;51.734;8.950;2023-02-01T07:45:56;4.70;1.00
4727;DHT22;2377;51.734;8.950;2023-02-01T07:48:26;4.70;1.00
4727;DHT22;2377;51.734;8.950;2023-02-01T07:50:57;4.80;1.00
4727;DHT22;2377;51.734;8.950;2023-02-01T07:53:25;4.80;1.00
4727;DHT22;2377;51.734;8.950;2023-02-01T07:55:52;4.80;1.00
4727;DHT22;2377;51.734;8.950;2023-02-01T07:58:19;4.80;1.00
4727;DHT22;2377;51.734;8.950;2023-02-01T08:00:46;4.80;1.00
4727;DHT22;2377;51.734;8.950;2023-02-01T08:03:31;4.80;1.00
4727;DHT22;2377;51.734;8.950;2023-02-01T08:05:59;4.80;1.00
4727;DHT22;2377;51.734;8.950;2023-02-01T08:08:26;4.80;1.00
4727;DHT22;2377;51.734;8.950;2023-02-01T08:10:57;4.80;1.00
4727;DHT22;2377;51.734;8.950;2023-02-01T08:13:24;4.80;1.00
4727;DHT22;2377;51.734;8.950;2023-02-01T08:15:51;4.90;1.00
4727;DHT22;2377;51.734;8.950;2023-02-01T08:18:18;4.90;1.00
4727;DHT22;2377;51.734;8.950;2023-02-01T08:20:47;4.90;1.00
4727;DHT22;2377;51.734;8.950;2023-02-01T08:23:14;4.80;1.00
4727;DHT22;2377;51.734;8.950;2023-02-01T08:25:42;4.80;1.00
4727;DHT22;2377;51.734;8.950;2023-02-01T08:28:10;4.80;1.00
4727;DHT22;2377;51.734;8.950;2023-02-01T08:30:38;4.80;1.00
4727;DHT22;2377;51.734;8.950;2023-02-01T08:33:05;4.90;1.00
4727;DHT22;2377;51.734;8.950;2023-02-01T08:35:35;4.90;1.00
4727;DHT22;2377;51.734;8.950;2023-02-01T08:38:04;4.90;1.00
4727;DHT22;2377;51.734;8.950;2023-02-01T08:40:32;5.00;1.00
4727;DHT22;2377;51.734;8.950;2023-02-01T08:42:59;5.00;1.00
4727;DHT22;2377;51.734;8.950;2023-02-01T08:45:28;5.00;1.00
4727;DHT22;2377;51.734;8.950;2023-02-01T08:47:56;5.00;1.00
4727;DHT22;2377;51.734;8.950;2023-02-01T08:50:24;5.00;1.00
4727;DHT22;2377;51.734;8.950;2023-02-01T08:52:52;4.90;1.00
4727;DHT22;2377;51.734;8.950;2023-02-01T08:55:21;5.00;1.00
4727;DHT22;2377;51.734;8.950;2023-02-01T08:57:48;5.00;1.00
4727;DHT22;2377;51.734;8.950;2023-02-01T09:00:17;5.00;1.00
4727;DHT22;2377;51.734;8.950;2023-02-01T09:02:44;5.00;1.00
4727;DHT22;2377;51.734;8.950;2023-02-01T09:05:12;5.00;1.00
4727;DHT22;2377;51.734;8.950;2023-02-01T09:07:40;5.00;9.50
4727;DHT22;2377;51.734;8.950;2023-02-01T09:10:08;4.90;10.10
4727;DHT22;2377;51.734;8.950;2023-02-01T09:12:37;4.90;7.50
4727;DHT22;2377;51.734;8.950;2023-02-01T09:15:05;4.80;14.50
4727;DHT22;2377;51.734;8.950;2023-02-01T09:17:33;4.80;2.40
4727;DHT22;2377;51.734;8.950;2023-02-01T09:20:01;4.90;16.70
4727;DHT22;2377;51.734;8.950;2023-02-01T09:22:29;4.80;8.70
4727;DHT22;2377;51.734;8.950;2023-02-01T09:24:56;4.90;1.00
4727;DHT22;2377;51.734;8.950;2023-02-01T09:27:23;5.00;1.70
4727;DHT22;2377;51.734;8.950;2023-02-01T09:29:51;4.90;1.00
4727;DHT22;2377;51.734;8.950;2023-02-01T09:32:19;5.00;1.00
4727;DHT22;2377;51.734;8.950;2023-02-01T09:34:46;5.00;1.00
4727;DHT22;2377;51.734;8.950;2023-02-01T09:37:13;4.90;10.80
4727;DHT22;2377;51.734;8.950;2023-02-01T09:39:41;4.80;5.50
4727;DHT22;2377;51.734;8.950;2023-02-01T09:42:19;4.80;1.00
4727;DHT22;2377;51.734;8.950;2023-02-01T09:45:10;5.00;1.00
4727;DHT22;2377;51.734;8.950;2023-02-01T09:47:49;5.00;1.00
4727;DHT22;2377;51.734;8.950;2023-02-01T09:50:27;5.00;1.00
4727;DHT22;2377;51.734;8.950;2023-02-01T09:53:02;5.00;1.00
4727;DHT22;2377;51.734;8.950;2023-02-01T09:55:39;5.00;1.00
4727;DHT22;2377;51.734;8.950;2023-02-01T09:58:13;5.00;1.00
4727;DHT22;2377;51.734;8.950;2023-02-01T10:00:52;5.10;1.00
4727;DHT22;2377;51.734;8.950;2023-02-01T10:03:24;5.10;1.00
4727;DHT22;2377;51.734;8.950;2023-02-01T10:06:09;5.00;1.00
4727;DHT22;2377;51.734;8.950;2023-02-01T10:09:06;5.00;1.00
4727;DHT22;2377;51.734;8.950;2023-02-01T10:11:51;5.00;1.00
4727;DHT22;2377;51.734;8.950;2023-02-01T10:14:51;5.00;1.00
4727;DHT22;2377;51.734;8.950;2023-02-01T10:17:43;5.00;1.00
4727;DHT22;2377;51.734;8.950;2023-02-01T10:20:29;5.00;1.00
4727;DHT22;2377;51.734;8.950;2023-02-01T10:23:21;5.00;1.00
4727;DHT22;2377;51.734;8.950;2023-02-01T10:26:04;5.00;1.00
4727;DHT22;2377;51.734;8.950;2023-02-01T10:28:39;5.10;1.00
4727;DHT22;2377;51.734;8.950;2023-02-01T10:31:09;5.00;1.00
4727;DHT22;2377;51.734;8.950;2023-02-01T10:33:41;5.00;1.00
4727;DHT22;2377;51.734;8.950;2023-02-01T10:36:15;5.00;1.00
4727;DHT22;2377;51.734;8.950;2023-02-01T10:38:46;5.10;1.00
4727;DHT22;2377;51.734;8.950;2023-02-01T10:41:17;5.10;1.00
4727;DHT22;2377;51.734;8.950;2023-02-01T10:43:49;5.00;1.00
4727;DHT22;2377;51.734;8.950;2023-02-01T10:46:20;5.10;1.00
4727;DHT22;2377;51.734;8.950;2023-02-01T10:48:49;5.10;1.00
4727;DHT22;2377;51.734;8.950;2023-02-01T10:51:22;5.10;1.00
4727;DHT22;2377;51.734;8.950;2023-02-01T10:53:57;5.20;1.00
4727;DHT22;2377;51.734;8.950;2023-02-01T10:56:28;5.20;1.00
4727;DHT22;2377;51.734;8.950;2023-02-01T10:59:01;5.20;1.00
4727;DHT22;2377;51.734;8.950;2023-02-01T11:01:33;5.10;1.00
4727;DHT22;2377;51.734;8.950;2023-02-01T11:04:05;5.10;1.00
4727;DHT22;2377;51.734;8.950;2023-02-01T11:06:39;5.10;1.00
4727;DHT22;2377;51.734;8.950;2023-02-01T11:09:16;5.20;1.00
4727;DHT22;2377;51.734;8.950;2023-02-01T11:11:57;5.30;1.00
4727;DHT22;2377;51.734;8.950;2023-02-01T11:14:38;5.20;1.00
4727;DHT22;2377;51.734;8.950;2023-02-01T11:17:25;5.10;1.00
4727;DHT22;2377;51.734;8.950;2023-02-01T11:19:58;5.30;1.00
4727;DHT22;2377;51.734;8.950;2023-02-01T11:22:27;5.20;1.00
4727;DHT22;2377;51.734;8.950;2023-02-01T11:24:56;5.20;1.00
4727;DHT22;2377;51.734;8.950;2023-02-01T11:27:25;5.20;1.00
4727;DHT22;2377;51.734;8.950;2023-02-01T11:29:55;5.20;1.00
4727;DHT22;2377;51.734;8.950;2023-02-01T11:32:28;5.10;1.00
4727;DHT22;2377;51.734;8.950;2023-02-01T11:35:00;5.30;1.00
4727;DHT22;2377;51.734;8.950;2023-02-01T11:37:32;5.30;1.00
4727;DHT22;2377;51.734;8.950;2023-02-01T11:40:22;5.30;1.00
4727;DHT22;2377;51.734;8.950;2023-02-01T11:42:56;5.20;1.00
4727;DHT22;2377;51.734;8.950;2023-02-01T11:45:26;5.20;1.00
4727;DHT22;2377;51.734;8.950;2023-02-01T11:47:56;5.10;1.00
4727;DHT22;2377;51.734;8.950;2023-02-01T11:50:31;5.30;1.00
4727;DHT22;2377;51.734;8.950;2023-02-01T11:53:24;5.30;1.00
4727;DHT22;2377;51.734;8.950;2023-02-01T11:56:11;5.30;1.00
4727;DHT22;2377;51.734;8.950;2023-02-01T11:59:13;5.30;1.00
4727;DHT22;2377;51.734;8.950;2023-02-01T12:05:35;5.30;1.00
4727;DHT22;2377;51.734;8.950;2023-02-01T12:08:32;5.30;1.00
4727;DHT22;2377;51.734;8.950;2023-02-01T12:11:30;5.30;1.00
4727;DHT22;2377;51.734;8.950;2023-02-01T12:14:20;5.30;1.00
4727;DHT22;2377;51.734;8.950;2023-02-01T12:17:14;5.40;1.00
4727;DHT22;2377;51.734;8.950;2023-02-01T12:23:25;5.30;1.00
4727;DHT22;2377;51.734;8.950;2023-02-01T12:26:27;5.30;1.00
4727;DHT22;2377;51.734;8.950;2023-02-01T12:29:21;5.30;1.00
4727;DHT22;2377;51.734;8.950;2023-02-01T12:32:14;5.30;1.00
4727;DHT22;2377;51.734;8.950;2023-02-01T12:35:20;5.30;1.00
4727;DHT22;2377;51.734;8.950;2023-02-01T12:38:17;5.20;1.00
4727;DHT22;2377;51.734;8.950;2023-02-01T12:41:07;5.20;1.00
4727;DHT22;2377;51.734;8.950;2023-02-01T12:43:47;5.20;1.00
4727;DHT22;2377;51.734;8.950;2023-02-01T12:46:22;5.20;8.90
4727;DHT22;2377;51.734;8.950;2023-02-01T12:48:59;5.10;4.80
4727;DHT22;2377;51.734;8.950;2023-02-01T12:51:33;5.10;5.30
4727;DHT22;2377;51.734;8.950;2023-02-01T12:54:09;5.10;14.30
4727;DHT22;2377;51.734;8.950;2023-02-01T12:56:44;5.10;8.60
4727;DHT22;2377;51.734;8.950;2023-02-01T12:59:20;5.00;18.80
4727;DHT22;2377;51.734;8.950;2023-02-01T13:01:55;5.00;21.60
4727;DHT22;2377;51.734;8.950;2023-02-01T13:04:33;5.00;49.90
4727;DHT22;2377;51.734;8.950;2023-02-01T13:07:11;4.90;40.10
4727;DHT22;2377;51.734;8.950;2023-02-01T13:09:49;5.00;49.60
4727;DHT22;2377;51.734;8.950;2023-02-01T13:12:26;4.90;54.80
4727;DHT22;2377;51.734;8.950;2023-02-01T13:15:04;4.90;52.20
4727;DHT22;2377;51.734;8.950;2023-02-01T13:17:40;5.00;56.40
4727;DHT22;2377;51.734;8.950;2023-02-01T13:20:17;5.00;67.80
4727;DHT22;2377;51.734;8.950;2023-02-01T13:22:51;4.90;94.10
4727;DHT22;2377;51.734;8.950;2023-02-01T13:25:31;4.80;92.70
4727;DHT22;2377;51.734;8.950;2023-02-01T13:28:07;4.90;87.50
4727;DHT22;2377;51.734;8.950;2023-02-01T13:31:00;4.80;93.90
4727;DHT22;2377;51.734;8.950;2023-02-01T13:34:06;4.80;99.90
4727;DHT22;2377;51.734;8.950;2023-02-01T13:37:05;4.80;99.90
4727;DHT22;2377;51.734;8.950;2023-02-01T13:39:56;4.80;99.90
4727;DHT22;2377;51.734;8.950;2023-02-01T13:42:43;4.70;99.90
4727;DHT22;2377;51.734;8.950;2023-02-01T13:45:18;4.80;99.90
4727;DHT22;2377;51.734;8.950;2023-02-01T13:47:49;4.80;99.90
4727;DHT22;2377;51.734;8.950;2023-02-01T13:50:23;4.80;99.90
4727;DHT22;2377;51.734;8.950;2023-02-01T13:52:54;4.70;99.90
4727;DHT22;2377;51.734;8.950;2023-02-01T13:55:30;4.80;99.90
4727;DHT22;2377;51.734;8.950;2023-02-01T13:58:19;4.80;99.90
4727;DHT22;2377;51.734;8.950;2023-02-01T14:00:49;4.80;99.90
4727;DHT22;2377;51.734;8.950;2023-02-01T14:03:20;4.80;99.90
4727;DHT22;2377;51.734;8.950;2023-02-01T14:11:40;4.90;99.90
4727;DHT22;2377;51.734;8.950;2023-02-01T14:14:43;5.00;99.90
4727;DHT22;2377;51.734;8.950;2023-02-01T14:17:36;4.90;99.90
4727;DHT22;2377;51.734;8.950;2023-02-01T14:23:24;4.90;99.90
4727;DHT22;2377;51.734;8.950;2023-02-01T14:26:08;5.00;99.90
4727;DHT22;2377;51.734;8.950;2023-02-01T14:28:42;5.00;99.90
4727;DHT22;2377;51.734;8.950;2023-02-01T14:31:42;5.00;99.90
4727;DHT22;2377;51.734;8.950;2023-02-01T14:34:17;5.00;99.90
4727;DHT22;2377;51.734;8.950;2023-02-01T14:36:51;5.00;99.90
4727;DHT22;2377;51.734;8.950;2023-02-01T14:39:32;5.00;99.90
4727;DHT22;2377;51.734;8.950;2023-02-01T14:42:13;5.00;99.90
4727;DHT22;2377;51.734;8.950;2023-02-01T14:44:48;5.10;99.90
4727;DHT22;2377;51.734;8.950;2023-02-01T14:47:32;5.10;99.90
4727;DHT22;2377;51.734;8.950;2023-02-01T14:50:30;5.10;99.90
4727;DHT22;2377;51.734;8.950;2023-02-01T14:53:13;5.10;99.90
4727;DHT22;2377;51.734;8.950;2023-02-01T14:55:49;5.10;99.90
4727;DHT22;2377;51.734;8.950;2023-02-01T14:58:29;5.10;99.90
4727;DHT22;2377;51.734;8.950;2023-02-01T15:01:04;5.10;99.90
4727;DHT22;2377;51.734;8.950;2023-02-01T15:03:41;5.20;99.90
4727;DHT22;2377;51.734;8.950;2023-02-01T15:06:26;5.30;58.00
4727;DHT22;2377;51.734;8.950;2023-02-01T15:08:59;5.30;62.20
4727;DHT22;2377;51.734;8.950;2023-02-01T15:11:29;5.30;40.10
4727;DHT22;2377;51.734;8.950;2023-02-01T15:13:57;5.30;42.50
4727;DHT22;2377;51.734;8.950;2023-02-01T15:16:26;5.30;99.90
4727;DHT22;2377;51.734;8.950;2023-02-01T15:19:13;5.20;87.10
4727;DHT22;2377;51.734;8.950;2023-02-01T15:21:45;5.00;75.20
4727;DHT22;2377;51.734;8.950;2023-02-01T15:24:19;4.80;99.90
4727;DHT22;2377;51.734;8.950;2023-02-01T15:26:47;4.60;99.90
4727;DHT22;2377;51.734;8.950;2023-02-01T15:29:15;4.50;99.90
4727;DHT22;2377;51.734;8.950;2023-02-01T15:31:45;4.40;99.90
4727;DHT22;2377;51.734;8.950;2023-02-01T15:34:14;4.30;99.90
4727;DHT22;2377;51.734;8.950;2023-02-01T15:36:44;4.40;99.90
4727;DHT22;2377;51.734;8.950;2023-02-01T15:39:14;4.40;99.90
4727;DHT22;2377;51.734;8.950;2023-02-01T15:41:49;4.30;99.90
4727;DHT22;2377;51.734;8.950;2023-02-01T15:44:29;4.40;99.90
4727;DHT22;2377;51.734;8.950;2023-02-01T15:47:04;4.40;99.90
4727;DHT22;2377;51.734;8.950;2023-02-01T15:49:39;4.40;99.90
4727;DHT22;2377;51.734;8.950;2023-02-01T15:52:22;4.30;99.90
4727;DHT22;2377;51.734;8.950;2023-02-01T15:54:55;4.30;99.90
4727;DHT22;2377;51.734;8.950;2023-02-01T15:57:27;4.30;99.90
4727;DHT22;2377;51.734;8.950;2023-02-01T15:59:58;4.30;99.90
4727;DHT22;2377;51.734;8.950;2023-02-01T16:02:29;4.40;99.90
4727;DHT22;2377;51.734;8.950;2023-02-01T16:05:03;4.40;99.90
4727;DHT22;2377;51.734;8.950;2023-02-01T16:07:33;4.40;99.90
4727;DHT22;2377;51.734;8.950;2023-02-01T16:10:02;4.40;99.90
4727;DHT22;2377;51.734;8.950;2023-02-01T16:12:49;4.40;99.90
4727;DHT22;2377;51.734;8.950;2023-02-01T16:15:19;4.30;99.90
4727;DHT22;2377;51.734;8.950;2023-02-01T16:17:46;4.40;99.90
4727;DHT22;2377;51.734;8.950;2023-02-01T16:20:15;4.40;99.90
4727;DHT22;2377;51.734;8.950;2023-02-01T16:22:42;4.50;99.90
4727;DHT22;2377;51.734;8.950;2023-02-01T16:25:09;4.30;99.90
4727;DHT22;2377;51.734;8.950;2023-02-01T16:27:37;4.20;99.90
4727;DHT22;2377;51.734;8.950;2023-02-01T16:30:04;4.10;99.90
4727;DHT22;2377;51.734;8.950;2023-02-01T16:32:35;4.10;99.90
4727;DHT22;2377;51.734;8.950;2023-02-01T16:35:05;4.20;99.90
4727;DHT22;2377;51.734;8.950;2023-02-01T16:37:41;4.30;99.90
4727;DHT22;2377;51.734;8.950;2023-02-01T16:40:13;4.50;99.90
4727;DHT22;2377;51.734;8.950;2023-02-01T16:42:41;4.50;99.90
4727;DHT22;2377;51.734;8.950;2023-02-01T16:45:09;4.60;99.90
4727;DHT22;2377;51.734;8.950;2023-02-01T16:47:37;4.60;99.90
4727;DHT22;2377;51.734;8.950;2023-02-01T16:50:15;4.80;99.90
4727;DHT22;2377;51.734;8.950;2023-02-01T16:52:44;4.70;99.90
4727;DHT22;2377;51.734;8.950;2023-02-01T16:55:13;4.80;99.90
4727;DHT22;2377;51.734;8.950;2023-02-01T16:57:41;4.60;99.90
4727;DHT22;2377;51.734;8.950;2023-02-01T17:00:11;4.60;99.90
4727;DHT22;2377;51.734;8.950;2023-02-01T17:02:41;4.60;99.90
4727;DHT22;2377;51.734;8.950;2023-02-01T17:05:09;4.60;99.90
4727;DHT22;2377;51.734;8.950;2023-02-01T17:07:37;4.60;99.90
4727;DHT22;2377;51.734;8.950;2023-02-01T17:10:16;4.70;99.90
4727;DHT22;2377;51.734;8.950;2023-02-01T17:12:49;4.60;99.90
4727;DHT22;2377;51.734;8.950;2023-02-01T17:15:16;4.80;99.90
4727;DHT22;2377;51.734;8.950;2023-02-01T17:17:43;4.60;99.90
4727;DHT22;2377;51.734;8.950;2023-02-01T17:20:18;4.70;99.90
4727;DHT22;2377;51.734;8.950;2023-02-01T17:22:47;4.70;99.90
4727;DHT22;2377;51.734;8.950;2023-02-01T17:25:17;4.60;99.90